createdAt,value
2023-04-10T00:00:18.815Z,79.73
2023-04-10T00:02:48.657Z,79.71
2023-04-10T00:05:17.831Z,79.87
2023-04-10T00:07:46.072Z,79.76
2023-04-10T00:10:14.248Z,79.77
2023-04-10T00:12:48.180Z,79.81
2023-04-10T00:15:16.304Z,79.84
2023-04-10T00:17:46.671Z,79.78
2023-04-10T00:20:14.794Z,79.76
2023-04-10T00:22:44.120Z,79.83
2023-04-10T00:25:12.158Z,79.86
2023-04-10T00:27:41.459Z,79.81
2023-04-10T00:30:09.748Z,79.75
2023-04-10T00:32:46.733Z,79.81
2023-04-10T00:35:18.261Z,79.79
2023-04-10T00:37:47.251Z,79.88
2023-04-10T00:40:15.496Z,79.94
2023-04-10T00:42:44.004Z,79.89
2023-04-10T00:45:12.113Z,80.04
2023-04-10T00:47:41.601Z,80.07
2023-04-10T00:50:10.460Z,79.95
2023-04-10T00:52:38.564Z,79.96
2023-04-10T00:55:07.976Z,79.93
2023-04-10T00:57:36.072Z,79.79
2023-04-10T01:00:05.757Z,79.70
2023-04-10T01:02:36.939Z,79.79
2023-04-10T01:05:06.304Z,79.82
2023-04-10T01:07:52.693Z,79.89
2023-04-10T01:10:30.719Z,79.76
2023-04-10T01:13:20.708Z,79.66
2023-04-10T01:16:22.954Z,79.57
2023-04-10T01:18:55.479Z,79.62
2023-04-10T01:21:24.149Z,79.59
2023-04-10T01:24:10.920Z,79.62
2023-04-10T01:27:11.337Z,79.57
2023-04-10T01:29:44.701Z,79.49
2023-04-10T01:32:18.616Z,79.51
2023-04-10T01:34:51.432Z,79.53
2023-04-10T01:37:27.213Z,79.41
2023-04-10T01:40:01.141Z,79.41
2023-04-10T01:42:35.585Z,79.50
2023-04-10T01:45:04.909Z,79.47
2023-04-10T01:47:33.101Z,79.41
2023-04-10T01:50:02.093Z,79.49
2023-04-10T01:52:31.056Z,79.48
2023-04-10T01:55:08.334Z,79.63
2023-04-10T01:57:46.650Z,79.71
2023-04-10T02:00:20.475Z,79.75
2023-04-10T02:02:49.706Z,79.84
2023-04-10T02:05:18.191Z,79.80
2023-04-10T02:08:12.802Z,79.82
2023-04-10T02:10:43.907Z,79.85
2023-04-10T02:13:12.410Z,79.94
2023-04-10T02:15:42.873Z,80.08
2023-04-10T02:18:11.532Z,80.11
2023-04-10T02:20:39.568Z,80.24
2023-04-10T02:23:10.015Z,80.20
2023-04-10T02:25:39.093Z,80.06
2023-04-10T02:28:08.019Z,80.23
2023-04-10T02:30:39.833Z,80.37
2023-04-10T02:33:08.778Z,80.30
2023-04-10T02:35:37.783Z,80.40
2023-04-10T02:38:05.996Z,80.54
2023-04-10T02:40:37.226Z,80.58
2023-04-10T02:43:13.461Z,80.65
2023-04-10T02:45:42.720Z,80.76
2023-04-10T02:48:13.305Z,80.82
2023-04-10T02:50:46.374Z,80.97
2023-04-10T02:53:16.211Z,80.90
2023-04-10T02:55:45.815Z,81.05
2023-04-10T02:58:15.164Z,81.09
2023-04-10T03:00:51.117Z,81.26
2023-04-10T03:03:29.458Z,81.24
2023-04-10T03:05:58.081Z,81.36
2023-04-10T03:08:31.267Z,81.51
2023-04-10T03:10:59.441Z,81.60
2023-04-10T03:13:28.146Z,81.64
2023-04-10T03:15:56.285Z,81.63
2023-04-10T03:18:24.322Z,81.74
2023-04-10T03:20:56.640Z,81.76
2023-04-10T03:23:24.906Z,81.81
2023-04-10T03:25:56.363Z,81.87
2023-04-10T03:28:27.951Z,81.85
2023-04-10T03:30:55.987Z,81.80
2023-04-10T03:33:25.019Z,81.80
2023-04-10T03:35:57.421Z,81.78
2023-04-10T03:38:25.759Z,81.78
2023-04-10T03:40:54.151Z,81.74
2023-04-10T03:43:25.014Z,81.82
2023-04-10T03:45:53.110Z,81.79
2023-04-10T03:48:22.042Z,81.83
2023-04-10T03:50:50.273Z,81.80
2023-04-10T03:53:18.632Z,81.73
2023-04-10T03:55:47.091Z,81.64
2023-04-10T03:58:15.373Z,81.67
2023-04-10T04:00:44.442Z,81.61
2023-04-10T04:03:22.956Z,81.49
2023-04-10T04:05:59.176Z,81.34
2023-04-10T04:08:36.486Z,81.30
2023-04-10T04:11:15.866Z,81.33
2023-04-10T04:14:06.557Z,81.38
2023-04-10T04:16:47.763Z,81.45
2023-04-10T04:19:27.950Z,81.34
2023-04-10T04:22:23.109Z,81.23
2023-04-10T04:25:11.017Z,81.21
2023-04-10T04:27:59.296Z,81.05
2023-04-10T04:30:46.752Z,81.09
2023-04-10T04:33:38.011Z,81.04
2023-04-10T04:36:25.835Z,81.00
2023-04-10T04:39:06.158Z,81.01
2023-04-10T04:41:54.461Z,80.89
2023-04-10T04:44:42.191Z,80.85
2023-04-10T04:47:19.706Z,80.89
2023-04-10T04:50:10.012Z,80.90
2023-04-10T04:53:01.330Z,80.89
2023-04-10T04:56:02.788Z,80.72
2023-04-10T04:59:00.043Z,80.62
2023-04-10T05:01:46.859Z,80.59
2023-04-10T05:04:35.177Z,80.66
2023-04-10T05:07:18.039Z,80.70
2023-04-10T05:09:52.330Z,80.46
2023-04-10T05:12:21.510Z,80.35
2023-04-10T05:15:01.803Z,80.25
2023-04-10T05:17:41.865Z,80.30
2023-04-10T05:20:36.193Z,80.29
2023-04-10T05:23:26.267Z,80.14
2023-04-10T05:26:14.699Z,79.88
2023-04-10T05:28:56.941Z,79.78
2023-04-10T05:31:34.781Z,79.79
2023-04-10T05:34:23.236Z,79.67
2023-04-10T05:37:11.662Z,79.57
2023-04-10T05:40:00.279Z,79.46
2023-04-10T05:42:29.612Z,79.38
2023-04-10T05:45:33.076Z,79.31
2023-04-10T05:48:26.164Z,79.09
2023-04-10T05:51:20.397Z,78.88
2023-04-10T05:54:17.353Z,78.70
2023-04-10T05:56:50.538Z,78.70
2023-04-10T05:59:22.089Z,78.70
2023-04-10T06:02:17.292Z,78.57
2023-04-10T06:04:46.734Z,78.48
2023-04-10T06:07:17.883Z,78.38
2023-04-10T06:09:47.000Z,78.33
2023-04-10T06:12:16.368Z,78.23
2023-04-10T06:14:47.752Z,78.16
2023-04-10T06:17:21.737Z,78.12
2023-04-10T06:19:50.013Z,78.09
2023-04-10T06:22:22.695Z,77.88
2023-04-10T06:24:52.834Z,77.67
2023-04-10T06:27:20.949Z,77.70
2023-04-10T06:29:52.032Z,77.70
2023-04-10T06:32:23.133Z,77.62
2023-04-10T06:34:51.801Z,77.59
2023-04-10T06:37:28.491Z,77.56
2023-04-10T06:40:10.511Z,77.47
2023-04-10T06:42:38.912Z,77.39
2023-04-10T06:45:23.803Z,77.31
2023-04-10T06:47:52.512Z,77.08
2023-04-10T06:50:23.391Z,76.99
2023-04-10T06:52:53.386Z,76.86
2023-04-10T06:55:21.942Z,76.64
2023-04-10T06:58:10.004Z,76.70
2023-04-10T07:00:38.797Z,76.74
2023-04-10T07:03:08.171Z,76.72
2023-04-10T07:05:36.457Z,76.79
2023-04-10T07:08:04.535Z,76.80
2023-04-10T07:10:34.488Z,76.73
2023-04-10T07:13:03.063Z,76.74
2023-04-10T07:15:41.688Z,76.91
2023-04-10T07:18:10.395Z,77.13
2023-04-10T07:20:38.499Z,77.39
2023-04-10T07:23:11.885Z,77.58
2023-04-10T07:25:42.470Z,77.77
2023-04-10T07:28:10.706Z,77.74
2023-04-10T07:30:42.884Z,77.84
2023-04-10T07:33:11.296Z,77.80
2023-04-10T07:35:39.653Z,77.70
2023-04-10T07:38:08.271Z,77.75
2023-04-10T07:40:36.542Z,77.87
2023-04-10T07:43:04.658Z,78.01
2023-04-10T07:45:33.221Z,78.04
2023-04-10T07:48:02.807Z,78.15
2023-04-10T07:50:34.252Z,78.27
2023-04-10T07:53:07.779Z,78.36
2023-04-10T07:55:39.548Z,78.47
2023-04-10T07:58:12.106Z,78.49
2023-04-10T08:00:40.404Z,78.55
2023-04-10T08:03:09.118Z,78.69
2023-04-10T08:05:39.808Z,78.73
2023-04-10T08:08:07.850Z,78.88
2023-04-10T08:10:38.668Z,79.13
2023-04-10T08:13:07.436Z,79.26
2023-04-10T08:15:35.877Z,79.63
2023-04-10T08:18:09.507Z,79.85
2023-04-10T08:20:37.640Z,79.99
2023-04-10T08:23:16.988Z,80.16
2023-04-10T08:25:48.703Z,80.25
2023-04-10T08:28:16.807Z,80.35
2023-04-10T08:30:45.537Z,80.29
2023-04-10T08:33:14.031Z,80.27
2023-04-10T08:35:43.233Z,80.16
2023-04-10T08:38:13.960Z,80.00
2023-04-10T08:40:44.806Z,79.94
2023-04-10T08:43:13.945Z,79.88
2023-04-10T08:45:43.441Z,79.94
2023-04-10T08:48:11.684Z,79.92
2023-04-10T08:50:43.146Z,79.74
2023-04-10T08:53:13.786Z,79.57
2023-04-10T08:55:44.806Z,79.47
2023-04-10T08:58:14.042Z,79.54
2023-04-10T09:00:42.152Z,79.60
2023-04-10T09:03:14.339Z,79.47
2023-04-10T09:05:42.830Z,79.21
2023-04-10T09:08:13.803Z,79.11
2023-04-10T09:10:42.134Z,78.98
2023-04-10T09:13:11.645Z,78.85
2023-04-10T09:15:57.163Z,78.67
2023-04-10T09:18:45.864Z,78.21
2023-04-10T09:21:16.127Z,77.90
2023-04-10T09:23:44.795Z,77.59
2023-04-10T09:26:29.829Z,77.54
2023-04-10T09:29:00.235Z,77.21
2023-04-10T09:31:36.101Z,76.82
2023-04-10T09:34:07.981Z,76.36
2023-04-10T09:36:37.636Z,76.13
2023-04-10T09:39:09.210Z,75.46
2023-04-10T09:42:07.630Z,74.62
2023-04-10T09:44:37.460Z,74.14
2023-04-10T09:47:13.762Z,73.77
2023-04-10T09:49:46.620Z,73.17
2023-04-10T09:52:19.521Z,72.90
2023-04-10T09:54:47.848Z,72.75
2023-04-10T09:57:20.342Z,72.50
2023-04-10T09:59:56.702Z,72.21
2023-04-10T10:02:28.891Z,71.92
2023-04-10T10:04:57.860Z,71.46
2023-04-10T10:07:26.799Z,70.89
2023-04-10T10:09:55.629Z,70.51
2023-04-10T10:12:49.699Z,70.10
2023-04-10T10:15:31.382Z,69.65
2023-04-10T10:18:21.076Z,69.87
2023-04-10T10:20:49.244Z,69.92
2023-04-10T10:23:17.620Z,69.64
2023-04-10T10:25:46.497Z,69.31
2023-04-10T10:28:14.983Z,68.89
2023-04-10T10:30:44.905Z,68.71
2023-04-10T10:33:13.661Z,68.16
2023-04-10T10:35:42.115Z,67.83
2023-04-10T10:38:12.978Z,67.79
2023-04-10T10:40:44.029Z,67.40
2023-04-10T10:43:16.898Z,66.55
2023-04-10T10:45:57.005Z,66.21
2023-04-10T10:48:25.279Z,65.86
2023-04-10T10:50:57.492Z,65.41
2023-04-10T10:53:44.315Z,65.13
2023-04-10T10:56:18.821Z,64.96
2023-04-10T10:58:55.896Z,64.92
2023-04-10T11:01:24.485Z,64.79
2023-04-10T11:03:54.024Z,64.24
2023-04-10T11:06:44.684Z,63.91
2023-04-10T11:09:51.202Z,63.64
2023-04-10T11:12:22.328Z,63.25
2023-04-10T11:15:01.443Z,63.09
2023-04-10T11:17:54.339Z,63.14
2023-04-10T11:20:27.527Z,63.44
2023-04-10T11:23:12.378Z,63.44
2023-04-10T11:25:54.855Z,63.28
2023-04-10T11:28:35.599Z,63.16
2023-04-10T11:31:16.213Z,63.20
2023-04-10T11:34:08.526Z,63.07
2023-04-10T11:36:40.879Z,63.03
2023-04-10T11:39:19.959Z,62.57
2023-04-10T11:41:52.079Z,62.34
2023-04-10T11:44:26.628Z,61.36
2023-04-10T11:46:54.716Z,60.98
2023-04-10T11:49:25.245Z,60.94
2023-04-10T11:51:53.525Z,60.71
2023-04-10T11:54:25.904Z,60.56
2023-04-10T11:57:04.565Z,60.70
2023-04-10T11:59:33.496Z,60.81
2023-04-10T12:02:14.390Z,61.09
2023-04-10T12:04:44.100Z,61.22
2023-04-10T12:07:13.670Z,61.50
2023-04-10T12:09:42.882Z,61.50
2023-04-10T12:12:12.544Z,61.62
2023-04-10T12:14:42.399Z,61.90
2023-04-10T12:17:11.633Z,62.10
2023-04-10T12:19:53.551Z,62.27
2023-04-10T12:22:22.159Z,62.35
2023-04-10T12:24:54.006Z,62.34
2023-04-10T12:27:23.076Z,62.32
2023-04-10T12:29:52.404Z,62.33
2023-04-10T12:32:20.901Z,62.42
2023-04-10T12:34:57.263Z,62.16
2023-04-10T12:37:26.765Z,61.72
2023-04-10T12:40:07.486Z,61.46
2023-04-10T12:42:40.258Z,61.19
2023-04-10T12:45:10.296Z,61.28
2023-04-10T12:47:49.235Z,61.59
2023-04-10T12:50:19.040Z,62.05
2023-04-10T12:53:09.175Z,62.42
2023-04-10T12:55:38.212Z,62.50
2023-04-10T12:58:21.405Z,62.13
2023-04-10T13:00:49.985Z,61.95
2023-04-10T13:03:18.664Z,62.21
2023-04-10T13:05:52.136Z,62.88
2023-04-10T13:08:21.443Z,72.81
2023-04-10T13:10:51.062Z,75.99
2023-04-10T13:13:19.516Z,77.95
2023-04-10T13:15:49.131Z,82.48
2023-04-10T13:18:17.882Z,85.94
2023-04-10T13:20:45.908Z,86.46
2023-04-10T13:23:14.579Z,86.98
2023-04-10T13:25:43.173Z,87.23
2023-04-10T13:28:12.241Z,87.59
2023-04-10T13:30:43.782Z,87.96
2023-04-10T13:33:12.806Z,88.46
2023-04-10T13:35:41.467Z,88.48
2023-04-10T13:38:11.824Z,88.66
2023-04-10T13:40:43.818Z,88.70
2023-04-10T13:43:13.549Z,88.21
2023-04-10T13:45:41.870Z,87.81
2023-04-10T13:48:11.396Z,87.54
2023-04-10T13:50:39.595Z,87.32
2023-04-10T13:53:15.042Z,87.02
2023-04-10T13:55:47.733Z,86.84
2023-04-10T13:58:16.231Z,86.64
2023-04-10T14:00:47.160Z,86.38
2023-04-10T14:03:16.440Z,86.57
2023-04-10T14:05:45.837Z,86.70
2023-04-10T14:08:16.026Z,86.64
2023-04-10T14:10:44.815Z,86.61
2023-04-10T14:13:13.034Z,86.30
2023-04-10T14:15:42.346Z,86.30
2023-04-10T14:18:18.691Z,86.63
2023-04-10T14:20:54.062Z,87.14
2023-04-10T14:23:22.912Z,87.14
2023-04-10T14:25:51.257Z,87.14
2023-04-10T14:28:20.901Z,86.92
2023-04-10T14:30:50.689Z,86.34
2023-04-10T14:33:22.253Z,86.84
2023-04-10T14:35:50.579Z,86.71
2023-04-10T14:38:19.519Z,86.93
2023-04-10T14:40:50.384Z,86.94
2023-04-10T14:43:19.620Z,86.82
2023-04-10T14:45:50.393Z,86.96
2023-04-10T14:48:26.950Z,86.64
2023-04-10T14:50:56.901Z,86.48
2023-04-10T14:53:25.399Z,86.55
2023-04-10T14:55:53.768Z,86.49
2023-04-10T14:58:22.258Z,86.35
2023-04-10T15:00:51.025Z,86.15
2023-04-10T15:03:19.433Z,85.92
2023-04-10T15:05:47.942Z,85.83
2023-04-10T15:08:16.246Z,85.62
2023-04-10T15:10:44.276Z,85.75
2023-04-10T15:13:12.680Z,85.89
2023-04-10T15:15:40.797Z,85.76
2023-04-10T15:18:08.878Z,85.69
2023-04-10T15:20:37.660Z,85.72
2023-04-10T15:23:06.391Z,85.76
2023-04-10T15:25:34.765Z,85.58
2023-04-10T15:28:03.158Z,85.56
2023-04-10T15:30:31.778Z,85.35
2023-04-10T15:33:01.002Z,85.27
2023-04-10T15:35:30.583Z,85.53
2023-04-10T15:37:58.885Z,85.60
2023-04-10T15:40:27.013Z,85.66
2023-04-10T15:42:55.420Z,85.65
2023-04-10T15:45:23.447Z,85.54
2023-04-10T15:47:51.570Z,85.28
2023-04-10T15:50:22.287Z,85.05
2023-04-10T15:52:51.337Z,84.93
2023-04-10T15:55:19.499Z,84.83
2023-04-10T15:57:50.698Z,84.81
2023-04-10T16:00:19.152Z,84.72
2023-04-10T16:02:47.593Z,84.67
2023-04-10T16:05:15.954Z,84.63
2023-04-10T16:07:44.498Z,84.50
2023-04-10T16:10:12.866Z,84.47
2023-04-10T16:12:47.938Z,84.46
2023-04-10T16:15:16.914Z,84.46
2023-04-10T16:17:45.628Z,84.49
2023-04-10T16:20:19.772Z,84.49
2023-04-10T16:22:47.872Z,84.47
2023-04-10T16:25:16.647Z,84.47
2023-04-10T16:27:46.774Z,84.42
2023-04-10T16:30:14.955Z,84.36
2023-04-10T16:32:44.264Z,84.34
2023-04-10T16:35:12.892Z,84.29
2023-04-10T16:37:41.171Z,84.26
2023-04-10T16:40:12.870Z,84.27
2023-04-10T16:42:42.982Z,84.26
2023-04-10T16:45:11.341Z,84.20
2023-04-10T16:47:40.611Z,84.26
2023-04-10T16:50:09.745Z,84.23
2023-04-10T16:52:41.362Z,84.28
2023-04-10T16:55:10.532Z,84.29
2023-04-10T16:57:38.658Z,84.42
2023-04-10T17:00:07.940Z,84.40
2023-04-10T17:02:37.635Z,84.34
2023-04-10T17:05:06.248Z,84.27
2023-04-10T17:07:37.712Z,84.35
2023-04-10T17:10:06.266Z,84.43
2023-04-10T17:12:35.019Z,84.46
2023-04-10T17:15:12.542Z,84.32
2023-04-10T17:17:41.107Z,84.43
2023-04-10T17:20:09.929Z,84.48
2023-04-10T17:22:39.474Z,84.56
2023-04-10T17:25:08.812Z,84.56
2023-04-10T17:27:39.728Z,84.68
2023-04-10T17:30:12.957Z,84.62
2023-04-10T17:32:43.595Z,84.72
2023-04-10T17:35:11.817Z,84.67
2023-04-10T17:37:40.435Z,84.65
2023-04-10T17:40:10.966Z,84.56
2023-04-10T17:42:44.865Z,84.47
2023-04-10T17:45:12.979Z,84.50
2023-04-10T17:47:41.152Z,84.48
2023-04-10T17:50:10.620Z,84.34
2023-04-10T17:52:39.831Z,84.27
2023-04-10T17:55:09.521Z,84.19
2023-04-10T17:57:39.315Z,84.22
2023-04-10T18:00:08.866Z,84.24
2023-04-10T18:02:38.501Z,84.06
2023-04-10T18:05:07.220Z,83.94
2023-04-10T18:07:38.410Z,83.81
2023-04-10T18:10:09.701Z,83.67
2023-04-10T18:12:40.458Z,83.56
2023-04-10T18:15:11.830Z,83.59
2023-04-10T18:17:40.659Z,83.47
2023-04-10T18:20:09.161Z,83.32
2023-04-10T18:22:37.926Z,83.34
2023-04-10T18:25:07.313Z,83.22
2023-04-10T18:27:43.607Z,83.08
2023-04-10T18:30:16.677Z,82.77
2023-04-10T18:32:45.920Z,82.65
2023-04-10T18:35:14.088Z,82.58
2023-04-10T18:37:44.399Z,82.48
2023-04-10T18:40:16.724Z,82.32
2023-04-10T18:42:46.810Z,82.06
2023-04-10T18:45:14.863Z,81.72
2023-04-10T18:47:43.337Z,81.53
2023-04-10T18:50:11.994Z,81.39
2023-04-10T18:52:45.333Z,81.22
2023-04-10T18:55:13.409Z,80.93
2023-04-10T18:57:41.891Z,80.66
2023-04-10T19:00:11.889Z,80.42
2023-04-10T19:02:40.959Z,80.09
2023-04-10T19:05:10.503Z,79.75
2023-04-10T19:07:47.222Z,79.41
2023-04-10T19:10:21.484Z,79.09
2023-04-10T19:12:53.155Z,78.83
2023-04-10T19:15:21.478Z,78.66
2023-04-10T19:17:54.490Z,78.41
2023-04-10T19:20:48.679Z,78.18
2023-04-10T19:23:11.941Z,77.91
2023-04-10T19:25:41.625Z,77.68
2023-04-10T19:28:09.680Z,77.36
2023-04-10T19:30:57.664Z,77.09
2023-04-10T19:33:25.808Z,76.71
2023-04-10T19:35:54.030Z,76.24
2023-04-10T19:38:22.308Z,75.40
2023-04-10T19:40:54.830Z,75.04
2023-04-10T19:43:23.035Z,74.40
2023-04-10T19:45:53.090Z,73.92
2023-04-10T19:48:21.230Z,73.46
2023-04-10T19:50:49.665Z,73.03
2023-04-10T19:53:23.642Z,72.78
2023-04-10T19:55:52.172Z,72.66
2023-04-10T19:58:35.986Z,72.53
2023-04-10T20:01:10.377Z,72.52
2023-04-10T20:03:40.071Z,72.56
2023-04-10T20:06:08.563Z,72.48
2023-04-10T20:08:37.781Z,72.25
2023-04-10T20:11:06.755Z,71.84
2023-04-10T20:13:35.385Z,71.11
2023-04-10T20:16:08.353Z,70.72
2023-04-10T20:18:38.593Z,70.23
2023-04-10T20:21:08.402Z,69.76
2023-04-10T20:23:39.083Z,69.17
2023-04-10T20:26:07.211Z,68.74
2023-04-10T20:28:35.440Z,68.38
2023-04-10T20:31:05.053Z,68.03
2023-04-10T20:33:33.216Z,67.41
2023-04-10T20:36:01.332Z,66.78
2023-04-10T20:38:29.694Z,66.10
2023-04-10T20:40:58.252Z,65.89
2023-04-10T20:43:26.321Z,65.66
2023-04-10T20:45:54.647Z,65.55
2023-04-10T20:48:22.660Z,65.16
2023-04-10T20:50:51.894Z,64.98
2023-04-10T20:53:20.485Z,64.91
2023-04-10T20:55:52.199Z,64.85
2023-04-10T20:58:20.794Z,64.86
2023-04-10T21:00:53.134Z,64.83
2023-04-10T21:03:23.320Z,64.92
2023-04-10T21:05:53.236Z,64.96
2023-04-10T21:08:23.866Z,65.01
2023-04-10T21:10:52.707Z,65.00
2023-04-10T21:13:20.984Z,64.94
2023-04-10T21:15:49.726Z,64.86
2023-04-10T21:18:17.916Z,64.58
2023-04-10T21:20:50.582Z,64.47
2023-04-10T21:23:19.056Z,64.40
2023-04-10T21:25:54.312Z,64.18
2023-04-10T21:28:22.646Z,64.13
2023-04-10T21:30:51.139Z,64.05
2023-04-10T21:33:20.375Z,64.13
2023-04-10T21:35:49.456Z,64.19
2023-04-10T21:38:18.470Z,64.11
2023-04-10T21:40:51.456Z,64.19
2023-04-10T21:43:20.629Z,64.33
2023-04-10T21:45:48.789Z,64.41
2023-04-10T21:48:19.687Z,64.52
2023-04-10T21:50:49.299Z,64.68
2023-04-10T21:53:18.492Z,64.77
2023-04-10T21:55:46.904Z,64.72
2023-04-10T21:58:14.912Z,64.77
2023-04-10T22:00:47.067Z,64.77
2023-04-10T22:03:16.851Z,64.71
2023-04-10T22:05:46.047Z,64.66
2023-04-10T22:08:15.108Z,64.65
2023-04-10T22:10:45.546Z,64.63
2023-04-10T22:13:30.335Z,64.50
2023-04-10T22:16:02.176Z,64.49
2023-04-10T22:18:31.478Z,64.27
2023-04-10T22:21:13.390Z,64.17
2023-04-10T22:23:43.199Z,63.97
2023-04-10T22:26:11.809Z,63.79
2023-04-10T22:28:42.766Z,63.73
2023-04-10T22:31:17.969Z,63.54
2023-04-10T22:33:46.473Z,63.50
2023-04-10T22:36:15.594Z,63.45
2023-04-10T22:38:43.734Z,63.51
2023-04-10T22:41:12.220Z,63.54
2023-04-10T22:43:40.830Z,63.59
2023-04-10T22:46:12.798Z,63.92
2023-04-10T22:48:41.491Z,64.26
2023-04-10T22:51:13.256Z,64.75
2023-04-10T22:53:42.597Z,65.23
2023-04-10T22:56:11.120Z,65.58
2023-04-10T22:58:43.123Z,65.87
2023-04-10T23:01:14.428Z,66.05
2023-04-10T23:03:43.401Z,66.34
2023-04-10T23:06:13.289Z,66.68
2023-04-10T23:08:41.833Z,66.95
2023-04-10T23:11:09.856Z,67.21
2023-04-10T23:13:39.919Z,67.48
2023-04-10T23:16:09.404Z,67.75
2023-04-10T23:18:37.736Z,68.02
2023-04-10T23:21:10.771Z,68.31
2023-04-10T23:23:38.991Z,68.49
2023-04-10T23:26:07.481Z,68.61
2023-04-10T23:28:37.008Z,68.75
2023-04-10T23:31:05.872Z,68.75
2023-04-10T23:33:34.126Z,68.96
2023-04-10T23:36:02.473Z,68.98
2023-04-10T23:38:31.176Z,69.00
2023-04-10T23:40:59.289Z,69.05
2023-04-10T23:43:27.671Z,69.14
2023-04-10T23:45:55.678Z,69.16
2023-04-10T23:48:29.070Z,69.33
2023-04-10T23:51:04.977Z,69.44
2023-04-10T23:53:33.127Z,69.61
2023-04-10T23:56:01.980Z,69.67
2023-04-10T23:58:30.453Z,69.71
